sensor_id;sensor_type;location;lat;lon;timestamp;pressure;altitude;pressure_sealevel;temperature;humidity
56270;BME280;42176;43.240;27.880;2023-02-16T00:01:25;101592.81;;;-0.74;90.18
56270;BME280;42176;43.240;27.880;2023-02-16T00:03:52;101585.34;;;-0.29;88.05
56270;BME280;42176;43.240;27.880;2023-02-16T00:06:18;101570.09;;;-0.59;85.47
56270;BME280;42176;43.240;27.880;2023-02-16T00:08:49;101588.66;;;-1.07;89.71
56270;BME280;42176;43.240;27.880;2023-02-16T00:14:06;101591.19;;;-0.15;88.79
56270;BME280;42176;43.240;27.880;2023-02-16T00:16:33;101584.41;;;-0.87;88.17
56270;BME280;42176;43.240;27.880;2023-02-16T00:18:58;101592.81;;;-1.63;92.53
56270;BME280;42176;43.240;27.880;2023-02-16T00:21:24;101579.59;;;-1.50;95.39
56270;BME280;42176;43.240;27.880;2023-02-16T00:23:50;101585.31;;;-1.04;94.14
56270;BME280;42176;43.240;27.880;2023-02-16T00:26:22;101586.66;;;-0.95;88.25
56270;BME280;42176;43.240;27.880;2023-02-16T00:28:52;101585.34;;;-1.74;92.79
56270;BME280;42176;43.240;27.880;2023-02-16T00:31:21;101578.94;;;-1.80;95.19
56270;BME280;42176;43.240;27.880;2023-02-16T00:33:47;101582.84;;;-1.54;95.01
56270;BME280;42176;43.240;27.880;2023-02-16T00:36:13;101572.94;;;-0.72;90.18
56270;BME280;42176;43.240;27.880;2023-02-16T00:38:38;101581.44;;;-1.65;91.59
56270;BME280;42176;43.240;27.880;2023-02-16T00:41:05;101563.28;;;-1.99;96.26
56270;BME280;42176;43.240;27.880;2023-02-16T00:43:50;101580.44;;;-1.67;96.25
56270;BME280;42176;43.240;27.880;2023-02-16T00:46:19;101576.63;;;-1.40;94.66
56270;BME280;42176;43.240;27.880;2023-02-16T00:48:44;101569.13;;;-0.61;89.72
56270;BME280;42176;43.240;27.880;2023-02-16T00:51:10;101576.69;;;-1.21;89.16
56270;BME280;42176;43.240;27.880;2023-02-16T00:53:35;101583.16;;;-1.66;92.70
56270;BME280;42176;43.240;27.880;2023-02-16T00:56:01;101568.03;;;-1.39;93.76
56270;BME280;42176;43.240;27.880;2023-02-16T00:58:29;101568.63;;;-0.90;91.53
56270;BME280;42176;43.240;27.880;2023-02-16T01:01:16;101570.72;;;-1.19;89.01
56270;BME280;42176;43.240;27.880;2023-02-16T01:03:43;101559.03;;;-1.80;92.53
56270;BME280;42176;43.240;27.880;2023-02-16T01:06:09;101574.25;;;-1.53;94.67
56270;BME280;42176;43.240;27.880;2023-02-16T01:08:54;101560.06;;;-0.69;89.60
56270;BME280;42176;43.240;27.880;2023-02-16T01:11:43;101560.59;;;-1.49;89.54
56270;BME280;42176;43.240;27.880;2023-02-16T01:14:11;101561.66;;;-1.96;93.13
56270;BME280;42176;43.240;27.880;2023-02-16T01:16:41;101557.41;;;-1.78;94.49
56270;BME280;42176;43.240;27.880;2023-02-16T01:19:10;101559.78;;;-1.48;94.30
56270;BME280;42176;43.240;27.880;2023-02-16T01:21:35;101560.84;;;-1.08;88.05
56270;BME280;42176;43.240;27.880;2023-02-16T01:24:01;101562.28;;;-1.84;92.13
56270;BME280;42176;43.240;27.880;2023-02-16T01:26:26;101554.66;;;-1.97;95.75
56270;BME280;42176;43.240;27.880;2023-02-16T01:28:52;101556.50;;;-1.78;96.05
56270;BME280;42176;43.240;27.880;2023-02-16T01:31:17;101554.78;;;-1.61;94.87
56270;BME280;42176;43.240;27.880;2023-02-16T01:33:43;101559.13;;;-1.44;93.68
56270;BME280;42176;43.240;27.880;2023-02-16T01:36:22;101547.75;;;-0.92;87.78
56270;BME280;42176;43.240;27.880;2023-02-16T01:38:49;101560.75;;;-1.46;90.57
56270;BME280;42176;43.240;27.880;2023-02-16T01:41:20;101558.19;;;-1.62;93.11
56270;BME280;42176;43.240;27.880;2023-02-16T01:44:26;101558.16;;;-1.46;93.33
56270;BME280;42176;43.240;27.880;2023-02-16T01:49:19;101558.31;;;-1.25;88.08
56270;BME280;42176;43.240;27.880;2023-02-16T01:54:33;101559.00;;;-1.63;94.50
56270;BME280;42176;43.240;27.880;2023-02-16T02:02:16;101559.41;;;-2.07;93.99
56270;BME280;42176;43.240;27.880;2023-02-16T02:04:45;101557.19;;;-1.99;97.40
56270;BME280;42176;43.240;27.880;2023-02-16T02:10:21;101559.69;;;-2.01;94.61
56270;BME280;42176;43.240;27.880;2023-02-16T02:13:01;101560.81;;;-1.79;100.00
56270;BME280;42176;43.240;27.880;2023-02-16T02:15:30;101556.75;;;-1.03;93.17
56270;BME280;42176;43.240;27.880;2023-02-16T02:17:56;101554.34;;;-0.23;81.31
56270;BME280;42176;43.240;27.880;2023-02-16T02:29:05;101550.94;;;-1.33;91.88
56270;BME280;42176;43.240;27.880;2023-02-16T02:32:10;101553.47;;;-2.04;95.43
56270;BME280;42176;43.240;27.880;2023-02-16T02:35:10;101562.28;;;-1.84;97.44
56270;BME280;42176;43.240;27.880;2023-02-16T02:37:53;101550.88;;;-1.70;97.07
56270;BME280;42176;43.240;27.880;2023-02-16T02:40:53;101549.31;;;-1.49;95.11
56270;BME280;42176;43.240;27.880;2023-02-16T02:43:35;101543.13;;;-1.33;90.89
56270;BME280;42176;43.240;27.880;2023-02-16T02:46:09;101543.31;;;-2.33;96.97
56270;BME280;42176;43.240;27.880;2023-02-16T02:48:36;101546.41;;;-2.23;100.00
56270;BME280;42176;43.240;27.880;2023-02-16T02:54:20;101548.19;;;-1.36;93.83
56270;BME280;42176;43.240;27.880;2023-02-16T02:57:41;101540.72;;;-2.33;97.79
56270;BME280;42176;43.240;27.880;2023-02-16T03:00:31;101548.66;;;-2.13;100.00
56270;BME280;42176;43.240;27.880;2023-02-16T03:03:18;101545.91;;;-2.00;100.00
56270;BME280;42176;43.240;27.880;2023-02-16T03:06:00;101545.22;;;-1.79;99.52
56270;BME280;42176;43.240;27.880;2023-02-16T03:08:29;101528.94;;;-1.58;93.80
56270;BME280;42176;43.240;27.880;2023-02-16T03:13:58;101543.00;;;-2.22;100.00
56270;BME280;42176;43.240;27.880;2023-02-16T03:16:35;101539.31;;;-1.93;100.00
56270;BME280;42176;43.240;27.880;2023-02-16T03:19:03;101543.66;;;-1.41;94.94
56270;BME280;42176;43.240;27.880;2023-02-16T03:21:50;101533.31;;;-2.25;98.65
56270;BME280;42176;43.240;27.880;2023-02-16T03:24:34;101554.03;;;-2.10;100.00
56270;BME280;42176;43.240;27.880;2023-02-16T03:27:24;101536.81;;;-2.08;100.00
56270;BME280;42176;43.240;27.880;2023-02-16T03:30:11;101541.06;;;-1.41;95.96
56270;BME280;42176;43.240;27.880;2023-02-16T03:32:38;101554.91;;;-1.93;97.60
56270;BME280;42176;43.240;27.880;2023-02-16T03:35:05;101564.50;;;-2.89;100.00
56270;BME280;42176;43.240;27.880;2023-02-16T03:37:31;101561.16;;;-2.55;100.00
56270;BME280;42176;43.240;27.880;2023-02-16T03:39:57;101559.22;;;-2.26;100.00
56270;BME280;42176;43.240;27.880;2023-02-16T03:42:49;101560.66;;;-1.82;98.26
56270;BME280;42176;43.240;27.880;2023-02-16T03:45:15;101549.75;;;-2.42;100.00
56270;BME280;42176;43.240;27.880;2023-02-16T03:47:41;101549.97;;;-2.21;100.00
56270;BME280;42176;43.240;27.880;2023-02-16T03:50:07;101556.69;;;-2.08;100.00
56270;BME280;42176;43.240;27.880;2023-02-16T03:52:32;101554.09;;;-1.92;100.00
56270;BME280;42176;43.240;27.880;2023-02-16T03:54:58;101554.13;;;-1.21;96.90
56270;BME280;42176;43.240;27.880;2023-02-16T03:57:24;101557.63;;;-2.24;98.31
56270;BME280;42176;43.240;27.880;2023-02-16T03:59:50;101558.91;;;-2.49;100.00
56270;BME280;42176;43.240;27.880;2023-02-16T04:02:17;101562.88;;;-2.23;100.00
56270;BME280;42176;43.240;27.880;2023-02-16T04:04:43;101559.22;;;-2.10;100.00
56270;BME280;42176;43.240;27.880;2023-02-16T04:07:08;101571.16;;;-1.97;100.00
56270;BME280;42176;43.240;27.880;2023-02-16T04:09:34;101567.81;;;-1.78;100.00
56270;BME280;42176;43.240;27.880;2023-02-16T04:11:59;101567.16;;;-1.21;97.71
56270;BME280;42176;43.240;27.880;2023-02-16T04:14:43;101566.28;;;-2.07;100.00
56270;BME280;42176;43.240;27.880;2023-02-16T04:17:08;101501.44;;;-2.72;100.00
56270;BME280;42176;43.240;27.880;2023-02-16T04:19:34;101558.09;;;-2.15;100.00
56270;BME280;42176;43.240;27.880;2023-02-16T04:21:59;101565.06;;;-1.28;100.00
56270;BME280;42176;43.240;27.880;2023-02-16T04:24:25;101543.69;;;-1.92;100.00
56270;BME280;42176;43.240;27.880;2023-02-16T04:26:50;101570.13;;;-2.34;100.00
56270;BME280;42176;43.240;27.880;2023-02-16T04:29:16;101566.78;;;-2.15;100.00
56270;BME280;42176;43.240;27.880;2023-02-16T04:31:41;101564.09;;;-2.00;100.00
56270;BME280;42176;43.240;27.880;2023-02-16T04:34:07;101572.84;;;-1.81;100.00
56270;BME280;42176;43.240;27.880;2023-02-16T04:36:32;101565.75;;;-1.67;100.00
56270;BME280;42176;43.240;27.880;2023-02-16T04:38:58;101570.00;;;-0.98;96.76
56270;BME280;42176;43.240;27.880;2023-02-16T04:41:24;101573.53;;;-1.50;99.33
56270;BME280;42176;43.240;27.880;2023-02-16T04:43:51;101573.47;;;-1.69;100.00
56270;BME280;42176;43.240;27.880;2023-02-16T04:46:16;101571.81;;;-1.50;100.00
56270;BME280;42176;43.240;27.880;2023-02-16T04:48:43;101584.25;;;-1.26;99.33
56270;BME280;42176;43.240;27.880;2023-02-16T04:51:09;101578.09;;;-0.74;93.40
56270;BME280;42176;43.240;27.880;2023-02-16T04:53:34;101575.16;;;-1.34;93.91
56270;BME280;42176;43.240;27.880;2023-02-16T04:56:00;101581.78;;;-1.76;96.77
56270;BME280;42176;43.240;27.880;2023-02-16T04:58:25;101574.25;;;-1.53;97.96
56270;BME280;42176;43.240;27.880;2023-02-16T05:00:51;101584.44;;;-1.40;97.18
56270;BME280;42176;43.240;27.880;2023-02-16T05:03:16;101581.50;;;-1.29;96.23
56270;BME280;42176;43.240;27.880;2023-02-16T05:05:42;101585.88;;;-0.92;94.12
56270;BME280;42176;43.240;27.880;2023-02-16T05:08:07;101594.94;;;-1.38;91.51
56270;BME280;42176;43.240;27.880;2023-02-16T05:10:35;101589.09;;;-2.02;96.72
56270;BME280;42176;43.240;27.880;2023-02-16T05:13:01;101592.03;;;-2.12;100.00
56270;BME280;42176;43.240;27.880;2023-02-16T05:15:45;101599.81;;;-1.95;100.00
56270;BME280;42176;43.240;27.880;2023-02-16T05:18:11;101605.34;;;-1.38;99.96
56270;BME280;42176;43.240;27.880;2023-02-16T05:20:36;101599.63;;;-1.65;96.93
56270;BME280;42176;43.240;27.880;2023-02-16T05:23:20;101587.97;;;-2.40;100.00
56270;BME280;42176;43.240;27.880;2023-02-16T05:25:48;101606.88;;;-2.09;100.00
56270;BME280;42176;43.240;27.880;2023-02-16T05:28:17;101615.00;;;-1.87;100.00
56270;BME280;42176;43.240;27.880;2023-02-16T05:30:42;101616.53;;;-1.04;100.00
56270;BME280;42176;43.240;27.880;2023-02-16T05:33:08;101604.75;;;-1.32;100.00
56270;BME280;42176;43.240;27.880;2023-02-16T05:35:33;101617.88;;;-1.13;100.00
56270;BME280;42176;43.240;27.880;2023-02-16T05:37:59;101611.09;;;-0.91;100.00
56270;BME280;42176;43.240;27.880;2023-02-16T05:40:24;101612.75;;;0.01;95.42
56270;BME280;42176;43.240;27.880;2023-02-16T05:42:54;101611.47;;;-0.65;93.64
56270;BME280;42176;43.240;27.880;2023-02-16T05:45:20;101609.41;;;-0.72;94.29
56270;BME280;42176;43.240;27.880;2023-02-16T05:47:45;101619.31;;;-0.46;93.48
56270;BME280;42176;43.240;27.880;2023-02-16T05:50:14;101606.88;;;-0.13;90.90
56270;BME280;42176;43.240;27.880;2023-02-16T05:52:39;101608.41;;;1.48;86.05
56270;BME280;42176;43.240;27.880;2023-02-16T05:55:07;101605.09;;;3.01;71.99
56270;BME280;42176;43.240;27.880;2023-02-16T05:57:32;101610.06;;;2.41;71.96
56270;BME280;42176;43.240;27.880;2023-02-16T05:59:59;101611.63;;;3.41;71.40
56270;BME280;42176;43.240;27.880;2023-02-16T06:02:30;101607.97;;;4.95;61.75
56270;BME280;42176;43.240;27.880;2023-02-16T06:04:56;101607.59;;;5.95;56.86
56270;BME280;42176;43.240;27.880;2023-02-16T06:07:21;101602.09;;;6.75;52.97
56270;BME280;42176;43.240;27.880;2023-02-16T06:09:46;101607.03;;;7.67;50.84
56270;BME280;42176;43.240;27.880;2023-02-16T06:12:15;101617.06;;;8.75;47.01
56270;BME280;42176;43.240;27.880;2023-02-16T06:14:40;101611.38;;;7.62;48.13
56270;BME280;42176;43.240;27.880;2023-02-16T06:17:06;101621.28;;;5.02;55.54
56270;BME280;42176;43.240;27.880;2023-02-16T06:19:31;101611.56;;;7.14;52.33
56270;BME280;42176;43.240;27.880;2023-02-16T06:21:56;101613.59;;;8.79;47.34
56270;BME280;42176;43.240;27.880;2023-02-16T06:24:22;101607.38;;;10.14;44.25
56270;BME280;42176;43.240;27.880;2023-02-16T06:26:47;101602.22;;;11.32;42.20
56270;BME280;42176;43.240;27.880;2023-02-16T06:29:15;101604.34;;;12.61;40.15
56270;BME280;42176;43.240;27.880;2023-02-16T06:31:41;101597.25;;;13.63;37.66
56270;BME280;42176;43.240;27.880;2023-02-16T06:34:06;101597.88;;;14.51;34.81
56270;BME280;42176;43.240;27.880;2023-02-16T06:36:35;101606.22;;;15.40;33.08
56270;BME280;42176;43.240;27.880;2023-02-16T06:39:00;101596.19;;;16.38;31.94
56270;BME280;42176;43.240;27.880;2023-02-16T06:41:25;101596.94;;;16.82;31.38
56270;BME280;42176;43.240;27.880;2023-02-16T06:44:14;101587.84;;;17.59;30.10
56270;BME280;42176;43.240;27.880;2023-02-16T06:46:45;101588.69;;;18.22;29.04
56270;BME280;42176;43.240;27.880;2023-02-16T06:49:13;101589.13;;;18.92;27.98
56270;BME280;42176;43.240;27.880;2023-02-16T06:51:38;101557.22;;;18.83;27.34
56270;BME280;42176;43.240;27.880;2023-02-16T06:54:07;101594.97;;;19.81;26.76
56270;BME280;42176;43.240;27.880;2023-02-16T06:56:33;101594.59;;;19.43;26.64
56270;BME280;42176;43.240;27.880;2023-02-16T06:58:58;101593.94;;;18.54;27.61
56270;BME280;42176;43.240;27.880;2023-02-16T07:01:26;101591.91;;;18.62;27.98
56270;BME280;42176;43.240;27.880;2023-02-16T07:03:56;101587.56;;;18.85;27.36
56270;BME280;42176;43.240;27.880;2023-02-16T07:06:23;101596.63;;;19.36;27.08
56270;BME280;42176;43.240;27.880;2023-02-16T07:08:50;101589.66;;;19.30;27.04
56270;BME280;42176;43.240;27.880;2023-02-16T07:14:00;101595.78;;;19.09;28.04
56270;BME280;42176;43.240;27.880;2023-02-16T07:16:26;101599.31;;;19.61;27.29
56270;BME280;42176;43.240;27.880;2023-02-16T07:18:51;101586.41;;;19.95;26.33
56270;BME280;42176;43.240;27.880;2023-02-16T07:21:19;101591.47;;;20.27;26.25
56270;BME280;42176;43.240;27.880;2023-02-16T07:23:48;101592.13;;;21.00;26.41
56270;BME280;42176;43.240;27.880;2023-02-16T07:26:13;101577.28;;;21.52;25.40
56270;BME280;42176;43.240;27.880;2023-02-16T07:28:39;101576.19;;;21.77;25.39
56270;BME280;42176;43.240;27.880;2023-02-16T07:31:14;101585.25;;;22.14;24.53
56270;BME280;42176;43.240;27.880;2023-02-16T07:33:43;101563.78;;;21.72;24.65
56270;BME280;42176;43.240;27.880;2023-02-16T07:36:10;101572.19;;;22.04;24.08
56270;BME280;42176;43.240;27.880;2023-02-16T07:38:36;101569.13;;;22.68;23.61
56270;BME280;42176;43.240;27.880;2023-02-16T07:41:02;101563.16;;;22.61;23.29
56270;BME280;42176;43.240;27.880;2023-02-16T07:43:27;101563.41;;;22.38;22.83
56270;BME280;42176;43.240;27.880;2023-02-16T07:45:56;101548.09;;;21.81;22.35
56270;BME280;42176;43.240;27.880;2023-02-16T07:48:21;101562.63;;;21.18;22.88
56270;BME280;42176;43.240;27.880;2023-02-16T07:50:47;101557.19;;;20.76;22.63
56270;BME280;42176;43.240;27.880;2023-02-16T07:53:12;101555.44;;;19.59;23.45
56270;BME280;42176;43.240;27.880;2023-02-16T07:55:39;101552.31;;;19.46;24.33
56270;BME280;42176;43.240;27.880;2023-02-16T07:58:05;101553.31;;;19.44;24.06
56270;BME280;42176;43.240;27.880;2023-02-16T08:00:33;101547.47;;;19.56;24.00
56270;BME280;42176;43.240;27.880;2023-02-16T08:02:59;101555.69;;;20.01;23.67
56270;BME280;42176;43.240;27.880;2023-02-16T08:05:24;101562.38;;;19.90;23.60
56270;BME280;42176;43.240;27.880;2023-02-16T08:07:53;101561.91;;;20.92;22.72
56270;BME280;42176;43.240;27.880;2023-02-16T08:10:24;101550.03;;;20.75;22.23
56270;BME280;42176;43.240;27.880;2023-02-16T08:12:49;101541.34;;;19.53;23.60
56270;BME280;42176;43.240;27.880;2023-02-16T08:15:15;101538.44;;;19.33;23.29
56270;BME280;42176;43.240;27.880;2023-02-16T08:17:40;101549.94;;;19.62;23.04
56270;BME280;42176;43.240;27.880;2023-02-16T08:20:07;101548.06;;;19.65;23.03
56270;BME280;42176;43.240;27.880;2023-02-16T08:22:36;101543.25;;;19.49;23.71
56270;BME280;42176;43.240;27.880;2023-02-16T08:25:02;101554.06;;;18.41;24.72
56270;BME280;42176;43.240;27.880;2023-02-16T08:27:29;101506.09;;;17.42;25.38
56270;BME280;42176;43.240;27.880;2023-02-16T08:29:54;101551.66;;;17.42;25.83
56270;BME280;42176;43.240;27.880;2023-02-16T08:32:20;101557.38;;;16.94;26.76
56270;BME280;42176;43.240;27.880;2023-02-16T08:34:45;101547.94;;;17.46;26.79
56270;BME280;42176;43.240;27.880;2023-02-16T08:37:14;101554.47;;;17.04;27.34
56270;BME280;42176;43.240;27.880;2023-02-16T08:39:39;101550.06;;;17.02;27.46
56270;BME280;42176;43.240;27.880;2023-02-16T08:42:05;101547.22;;;17.41;27.24
56270;BME280;42176;43.240;27.880;2023-02-16T08:44:40;101558.63;;;17.79;27.24
56270;BME280;42176;43.240;27.880;2023-02-16T08:47:06;101557.56;;;18.17;27.13
56270;BME280;42176;43.240;27.880;2023-02-16T08:49:33;101549.66;;;17.80;27.18
56270;BME280;42176;43.240;27.880;2023-02-16T08:52:01;101545.81;;;18.21;27.02
56270;BME280;42176;43.240;27.880;2023-02-16T08:54:30;101519.97;;;18.17;26.88
56270;BME280;42176;43.240;27.880;2023-02-16T08:56:57;101551.00;;;19.08;25.87
56270;BME280;42176;43.240;27.880;2023-02-16T08:59:24;101546.22;;;19.16;25.38
56270;BME280;42176;43.240;27.880;2023-02-16T09:01:52;101539.81;;;19.20;25.92
56270;BME280;42176;43.240;27.880;2023-02-16T09:04:18;101540.97;;;18.86;26.56
56270;BME280;42176;43.240;27.880;2023-02-16T09:06:46;101545.59;;;18.27;27.18
56270;BME280;42176;43.240;27.880;2023-02-16T09:09:15;101542.28;;;17.26;28.63
56270;BME280;42176;43.240;27.880;2023-02-16T09:11:41;101552.78;;;15.84;31.29
56270;BME280;42176;43.240;27.880;2023-02-16T09:14:07;101554.66;;;14.27;33.80
56270;BME280;42176;43.240;27.880;2023-02-16T09:16:33;101547.56;;;13.59;34.65
56270;BME280;42176;43.240;27.880;2023-02-16T09:19:02;101550.03;;;12.91;35.75
56270;BME280;42176;43.240;27.880;2023-02-16T09:21:29;101547.78;;;12.32;36.53
56270;BME280;42176;43.240;27.880;2023-02-16T09:24:02;101555.94;;;12.05;37.26
56270;BME280;42176;43.240;27.880;2023-02-16T09:26:35;101545.50;;;11.60;36.46
56270;BME280;42176;43.240;27.880;2023-02-16T09:29:03;101540.31;;;11.13;37.72
56270;BME280;42176;43.240;27.880;2023-02-16T09:31:34;101548.28;;;10.85;38.95
56270;BME280;42176;43.240;27.880;2023-02-16T09:36:32;101544.75;;;10.38;39.91
56270;BME280;42176;43.240;27.880;2023-02-16T09:38:59;101531.41;;;10.13;39.93
56270;BME280;42176;43.240;27.880;2023-02-16T09:46:53;101525.19;;;9.94;40.46
56270;BME280;42176;43.240;27.880;2023-02-16T09:49:24;101523.41;;;9.88;40.27
56270;BME280;42176;43.240;27.880;2023-02-16T09:54:45;101511.91;;;9.80;39.57
56270;BME280;42176;43.240;27.880;2023-02-16T10:10:24;101498.69;;;9.85;40.02
56270;BME280;42176;43.240;27.880;2023-02-16T10:12:57;101495.13;;;9.81;40.17
56270;BME280;42176;43.240;27.880;2023-02-16T10:15:26;101483.66;;;9.79;40.90
56270;BME280;42176;43.240;27.880;2023-02-16T10:18:00;101477.47;;;9.72;40.19
56270;BME280;42176;43.240;27.880;2023-02-16T10:20:31;101490.75;;;9.88;38.69
56270;BME280;42176;43.240;27.880;2023-02-16T10:23:24;101492.50;;;9.97;39.07
56270;BME280;42176;43.240;27.880;2023-02-16T10:26:00;101485.47;;;9.96;38.02
56270;BME280;42176;43.240;27.880;2023-02-16T10:28:51;101483.69;;;9.98;38.96
56270;BME280;42176;43.240;27.880;2023-02-16T10:31:52;101474.84;;;9.99;39.78
56270;BME280;42176;43.240;27.880;2023-02-16T10:42:53;101466.06;;;10.18;34.91
56270;BME280;42176;43.240;27.880;2023-02-16T10:47:50;101466.06;;;10.28;37.24
56270;BME280;42176;43.240;27.880;2023-02-16T10:50:26;101463.41;;;10.29;39.00
56270;BME280;42176;43.240;27.880;2023-02-16T10:52:57;101458.09;;;10.28;37.36
56270;BME280;42176;43.240;27.880;2023-02-16T10:55:23;101452.81;;;10.35;34.89
56270;BME280;42176;43.240;27.880;2023-02-16T10:57:55;101450.16;;;10.37;33.67
56270;BME280;42176;43.240;27.880;2023-02-16T11:00:28;101451.97;;;10.41;33.30
56270;BME280;42176;43.240;27.880;2023-02-16T11:03:01;101453.72;;;10.51;33.12
56270;BME280;42176;43.240;27.880;2023-02-16T11:05:38;101430.75;;;10.57;32.99
56270;BME280;42176;43.240;27.880;2023-02-16T11:08:06;101434.28;;;10.56;34.45
56270;BME280;42176;43.240;27.880;2023-02-16T11:13:36;101432.53;;;10.58;36.86
56270;BME280;42176;43.240;27.880;2023-02-16T11:16:20;101419.25;;;10.45;33.67
56270;BME280;42176;43.240;27.880;2023-02-16T11:21:48;101421.91;;;10.51;32.94
56270;BME280;42176;43.240;27.880;2023-02-16T11:24:34;101413.97;;;10.51;32.32
56270;BME280;42176;43.240;27.880;2023-02-16T11:27:21;101421.91;;;10.56;32.16
56270;BME280;42176;43.240;27.880;2023-02-16T11:29:47;101413.97;;;10.58;32.84
56270;BME280;42176;43.240;27.880;2023-02-16T11:32:18;101415.72;;;10.60;32.22
56270;BME280;42176;43.240;27.880;2023-02-16T11:34:50;101401.56;;;10.60;32.31
56270;BME280;42176;43.240;27.880;2023-02-16T11:37:28;101415.69;;;10.73;32.21
56270;BME280;42176;43.240;27.880;2023-02-16T11:40:18;101401.56;;;10.61;32.64
56270;BME280;42176;43.240;27.880;2023-02-16T11:42:47;101412.19;;;10.10;41.43
56270;BME280;42176;43.240;27.880;2023-02-16T11:45:26;101410.34;;;9.73;42.67
56270;BME280;42176;43.240;27.880;2023-02-16T11:47:58;101421.84;;;9.77;42.77
56270;BME280;42176;43.240;27.880;2023-02-16T11:50:26;101414.78;;;9.76;42.90
56270;BME280;42176;43.240;27.880;2023-02-16T11:52:56;101401.44;;;9.31;43.17
56270;BME280;42176;43.240;27.880;2023-02-16T11:55:30;101405.72;;;9.06;43.25
56270;BME280;42176;43.240;27.880;2023-02-16T11:58:19;101405.72;;;8.99;42.92
56270;BME280;42176;43.240;27.880;2023-02-16T12:01:16;101407.28;;;8.66;41.72
56270;BME280;42176;43.240;27.880;2023-02-16T12:04:11;101405.34;;;8.44;42.24
56270;BME280;42176;43.240;27.880;2023-02-16T12:06:54;101411.94;;;7.90;43.27
56270;BME280;42176;43.240;27.880;2023-02-16T12:12:18;101416.88;;;7.55;43.86
56270;BME280;42176;43.240;27.880;2023-02-16T12:20:49;101408.00;;;7.50;60.33
56270;BME280;42176;43.240;27.880;2023-02-16T12:34:45;101400.44;;;7.05;78.91
56270;BME280;42176;43.240;27.880;2023-02-16T12:42:42;101398.56;;;6.95;77.68
56270;BME280;42176;43.240;27.880;2023-02-16T12:45:17;101400.34;;;6.96;77.25
56270;BME280;42176;43.240;27.880;2023-02-16T12:47:51;101408.81;;;6.73;71.97
56270;BME280;42176;43.240;27.880;2023-02-16T12:50:28;101400.03;;;6.74;74.58
56270;BME280;42176;43.240;27.880;2023-02-16T12:53:03;101380.72;;;6.75;71.56
56270;BME280;42176;43.240;27.880;2023-02-16T12:56:07;101396.63;;;6.81;69.94
56270;BME280;42176;43.240;27.880;2023-02-16T12:58:30;101393.53;;;6.49;69.23
56270;BME280;42176;43.240;27.880;2023-02-16T13:01:08;101383.78;;;6.43;67.84
56270;BME280;42176;43.240;27.880;2023-02-16T13:03:51;101386.47;;;6.45;66.16
56270;BME280;42176;43.240;27.880;2023-02-16T13:11:54;101379.81;;;6.13;61.35
56270;BME280;42176;43.240;27.880;2023-02-16T13:14:29;101386.22;;;5.80;62.97
56270;BME280;42176;43.240;27.880;2023-02-16T13:16:59;101381.13;;;4.96;70.33
56270;BME280;42176;43.240;27.880;2023-02-16T13:19:26;101370.50;;;5.34;65.57
56270;BME280;42176;43.240;27.880;2023-02-16T13:24:54;101383.25;;;5.61;63.53
56270;BME280;42176;43.240;27.880;2023-02-16T13:27:35;101376.41;;;5.70;61.52
56270;BME280;42176;43.240;27.880;2023-02-16T13:33:07;101372.47;;;5.97;60.33
56270;BME280;42176;43.240;27.880;2023-02-16T13:38:48;101378.34;;;6.31;59.48
56270;BME280;42176;43.240;27.880;2023-02-16T13:41:40;101381.09;;;6.40;57.19
56270;BME280;42176;43.240;27.880;2023-02-16T13:44:21;101377.63;;;6.43;56.84
56270;BME280;42176;43.240;27.880;2023-02-16T13:46:49;101375.28;;;6.63;55.05
56270;BME280;42176;43.240;27.880;2023-02-16T13:49:33;101377.13;;;6.67;54.55
56270;BME280;42176;43.240;27.880;2023-02-16T13:52:39;101368.34;;;6.11;55.92
56270;BME280;42176;43.240;27.880;2023-02-16T14:00:46;101371.91;;;6.13;53.14
56270;BME280;42176;43.240;27.880;2023-02-16T14:05:51;101350.75;;;5.56;56.94
56270;BME280;42176;43.240;27.880;2023-02-16T14:08:28;101362.66;;;5.86;57.55
56270;BME280;42176;43.240;27.880;2023-02-16T14:11:00;101356.91;;;6.09;53.17
56270;BME280;42176;43.240;27.880;2023-02-16T14:16:26;101365.25;;;5.83;55.81
56270;BME280;42176;43.240;27.880;2023-02-16T14:19:02;101353.78;;;5.79;55.42
56270;BME280;42176;43.240;27.880;2023-02-16T14:21:43;101349.06;;;6.12;54.63
56270;BME280;42176;43.240;27.880;2023-02-16T14:26:59;101352.44;;;6.02;53.57
56270;BME280;42176;43.240;27.880;2023-02-16T14:29:39;101321.81;;;6.07;53.15
56270;BME280;42176;43.240;27.880;2023-02-16T14:34:56;101347.81;;;6.47;52.23
56270;BME280;42176;43.240;27.880;2023-02-16T14:37:33;101344.91;;;6.27;55.06
56270;BME280;42176;43.240;27.880;2023-02-16T14:40:20;101344.38;;;5.95;62.15
56270;BME280;42176;43.240;27.880;2023-02-16T14:42:52;101335.03;;;6.12;64.60
56270;BME280;42176;43.240;27.880;2023-02-16T14:45:44;101341.91;;;6.03;66.31
56270;BME280;42176;43.240;27.880;2023-02-16T14:51:31;101336.16;;;5.75;71.69
56270;BME280;42176;43.240;27.880;2023-02-16T14:57:11;101342.44;;;5.34;73.83
56270;BME280;42176;43.240;27.880;2023-02-16T14:59:47;101339.16;;;5.46;74.36
56270;BME280;42176;43.240;27.880;2023-02-16T15:02:31;101333.28;;;5.61;73.98
56270;BME280;42176;43.240;27.880;2023-02-16T15:05:19;101335.22;;;5.72;72.61
56270;BME280;42176;43.240;27.880;2023-02-16T15:07:51;101330.31;;;4.95;76.38
56270;BME280;42176;43.240;27.880;2023-02-16T15:10:23;101335.97;;;5.17;77.21
56270;BME280;42176;43.240;27.880;2023-02-16T15:12:51;101336.25;;;5.29;76.82
56270;BME280;42176;43.240;27.880;2023-02-16T15:15:21;101338.59;;;5.15;76.13
56270;BME280;42176;43.240;27.880;2023-02-16T15:17:49;101337.34;;;4.96;78.98
56270;BME280;42176;43.240;27.880;2023-02-16T15:20:38;101337.66;;;5.12;78.41